sensor_id;sensor_type;location;lat;lon;timestamp;P1;durP1;ratioP1;P2;durP2;ratioP2
19163;SDS011;9714;51.208;4.242;2023-02-01T00:00:05;38.67;;;8.13;;
19163;SDS011;9714;51.208;4.242;2023-02-01T00:02:43;35.70;;;8.10;;
19163;SDS011;9714;51.208;4.242;2023-02-01T00:05:13;32.63;;;8.87;;
19163;SDS011;9714;51.208;4.242;2023-02-01T00:07:46;25.07;;;7.73;;
19163;SDS011;9714;51.208;4.242;2023-02-01T00:13:40;24.33;;;7.33;;
19163;SDS011;9714;51.208;4.242;2023-02-01T00:16:38;30.97;;;6.67;;
19163;SDS011;9714;51.208;4.242;2023-02-01T00:19:40;31.60;;;6.80;;
19163;SDS011;9714;51.208;4.242;2023-02-01T00:22:59;31.87;;;8.20;;
19163;SDS011;9714;51.208;4.242;2023-02-01T00:26:27;34.67;;;7.20;;
19163;SDS011;9714;51.208;4.242;2023-02-01T00:28:56;26.40;;;7.10;;
19163;SDS011;9714;51.208;4.242;2023-02-01T00:31:48;27.20;;;8.30;;
19163;SDS011;9714;51.208;4.242;2023-02-01T00:34:36;30.47;;;7.90;;
19163;SDS011;9714;51.208;4.242;2023-02-01T00:37:08;31.83;;;7.53;;
19163;SDS011;9714;51.208;4.242;2023-02-01T00:43:01;30.70;;;7.10;;
19163;SDS011;9714;51.208;4.242;2023-02-01T00:45:31;31.87;;;8.23;;
19163;SDS011;9714;51.208;4.242;2023-02-01T01:01:29;41.87;;;7.90;;
19163;SDS011;9714;51.208;4.242;2023-02-01T01:08:22;31.60;;;7.50;;
19163;SDS011;9714;51.208;4.242;2023-02-01T01:15:12;25.27;;;5.63;;
19163;SDS011;9714;51.208;4.242;2023-02-01T04:58:11;40.73;;;8.07;;
19163;SDS011;9714;51.208;4.242;2023-02-01T05:00:39;35.40;;;7.37;;
19163;SDS011;9714;51.208;4.242;2023-02-01T05:03:09;36.37;;;6.43;;
19163;SDS011;9714;51.208;4.242;2023-02-01T05:05:43;41.80;;;7.13;;
19163;SDS011;9714;51.208;4.242;2023-02-01T05:08:10;32.87;;;7.07;;
19163;SDS011;9714;51.208;4.242;2023-02-01T05:10:37;31.07;;;5.87;;
19163;SDS011;9714;51.208;4.242;2023-02-01T05:13:04;37.43;;;7.77;;
19163;SDS011;9714;51.208;4.242;2023-02-01T05:15:51;32.07;;;5.67;;
19163;SDS011;9714;51.208;4.242;2023-02-01T05:18:18;48.90;;;8.03;;
19163;SDS011;9714;51.208;4.242;2023-02-01T05:20:45;33.47;;;5.90;;
19163;SDS011;9714;51.208;4.242;2023-02-01T05:23:12;34.80;;;6.80;;
19163;SDS011;9714;51.208;4.242;2023-02-01T05:25:40;28.77;;;6.20;;
19163;SDS011;9714;51.208;4.242;2023-02-01T05:28:07;36.83;;;6.03;;
19163;SDS011;9714;51.208;4.242;2023-02-01T05:30:34;35.83;;;6.57;;
19163;SDS011;9714;51.208;4.242;2023-02-01T05:33:04;32.33;;;5.53;;
19163;SDS011;9714;51.208;4.242;2023-02-01T05:35:32;34.33;;;7.20;;
19163;SDS011;9714;51.208;4.242;2023-02-01T05:37:59;29.60;;;6.60;;
19163;SDS011;9714;51.208;4.242;2023-02-01T05:40:29;34.50;;;6.10;;
19163;SDS011;9714;51.208;4.242;2023-02-01T05:42:59;34.30;;;7.63;;
19163;SDS011;9714;51.208;4.242;2023-02-01T05:45:26;38.83;;;6.70;;
19163;SDS011;9714;51.208;4.242;2023-02-01T05:47:53;34.47;;;8.03;;
19163;SDS011;9714;51.208;4.242;2023-02-01T05:50:26;35.30;;;7.23;;
19163;SDS011;9714;51.208;4.242;2023-02-01T05:52:53;35.30;;;7.13;;
19163;SDS011;9714;51.208;4.242;2023-02-01T05:55:20;35.23;;;7.13;;
19163;SDS011;9714;51.208;4.242;2023-02-01T05:57:50;42.57;;;7.60;;
19163;SDS011;9714;51.208;4.242;2023-02-01T06:00:17;38.40;;;8.17;;
19163;SDS011;9714;51.208;4.242;2023-02-01T06:02:46;41.00;;;8.00;;
19163;SDS011;9714;51.208;4.242;2023-02-01T06:05:18;31.27;;;6.07;;
19163;SDS011;9714;51.208;4.242;2023-02-01T06:07:47;35.40;;;6.53;;
19163;SDS011;9714;51.208;4.242;2023-02-01T06:10:19;40.27;;;7.43;;
19163;SDS011;9714;51.208;4.242;2023-02-01T06:12:47;36.30;;;6.50;;
19163;SDS011;9714;51.208;4.242;2023-02-01T06:15:21;34.27;;;7.03;;
19163;SDS011;9714;51.208;4.242;2023-02-01T06:17:49;30.93;;;6.60;;
19163;SDS011;9714;51.208;4.242;2023-02-01T06:20:16;31.20;;;6.50;;
19163;SDS011;9714;51.208;4.242;2023-02-01T06:22:43;33.70;;;6.83;;
19163;SDS011;9714;51.208;4.242;2023-02-01T06:25:13;31.87;;;7.20;;
19163;SDS011;9714;51.208;4.242;2023-02-01T06:27:46;35.10;;;6.83;;
19163;SDS011;9714;51.208;4.242;2023-02-01T06:30:15;30.63;;;5.73;;
19163;SDS011;9714;51.208;4.242;2023-02-01T06:32:43;30.20;;;6.37;;
19163;SDS011;9714;51.208;4.242;2023-02-01T06:35:33;33.23;;;6.13;;
19163;SDS011;9714;51.208;4.242;2023-02-01T06:41:42;36.03;;;6.43;;
19163;SDS011;9714;51.208;4.242;2023-02-01T06:44:51;33.77;;;6.40;;
19163;SDS011;9714;51.208;4.242;2023-02-01T06:47:23;36.07;;;7.97;;
19163;SDS011;9714;51.208;4.242;2023-02-01T06:53:21;34.30;;;7.90;;
19163;SDS011;9714;51.208;4.242;2023-02-01T06:55:53;40.17;;;6.70;;
19163;SDS011;9714;51.208;4.242;2023-02-01T06:58:23;33.63;;;5.90;;
19163;SDS011;9714;51.208;4.242;2023-02-01T07:00:56;31.60;;;6.47;;
19163;SDS011;9714;51.208;4.242;2023-02-01T07:03:26;33.13;;;7.57;;
19163;SDS011;9714;51.208;4.242;2023-02-01T07:05:55;36.57;;;6.73;;
19163;SDS011;9714;51.208;4.242;2023-02-01T07:08:26;30.83;;;7.23;;
19163;SDS011;9714;51.208;4.242;2023-02-01T07:10:56;38.37;;;8.03;;
19163;SDS011;9714;51.208;4.242;2023-02-01T07:13:35;28.17;;;6.27;;
19163;SDS011;9714;51.208;4.242;2023-02-01T07:16:03;32.20;;;6.93;;
19163;SDS011;9714;51.208;4.242;2023-02-01T07:18:42;32.03;;;6.40;;
19163;SDS011;9714;51.208;4.242;2023-02-01T07:21:39;30.43;;;6.77;;
19163;SDS011;9714;51.208;4.242;2023-02-01T07:24:45;26.27;;;5.97;;
19163;SDS011;9714;51.208;4.242;2023-02-01T07:27:37;32.03;;;6.70;;
19163;SDS011;9714;51.208;4.242;2023-02-01T07:33:46;42.03;;;7.80;;
19163;SDS011;9714;51.208;4.242;2023-02-01T07:36:38;29.07;;;6.93;;
19163;SDS011;9714;51.208;4.242;2023-02-01T07:39:25;32.77;;;6.30;;
19163;SDS011;9714;51.208;4.242;2023-02-01T07:45:16;39.43;;;6.90;;
19163;SDS011;9714;51.208;4.242;2023-02-01T08:10:09;30.73;;;7.07;;
19163;SDS011;9714;51.208;4.242;2023-02-01T08:12:36;31.10;;;6.47;;
19163;SDS011;9714;51.208;4.242;2023-02-01T08:15:03;30.13;;;5.47;;
19163;SDS011;9714;51.208;4.242;2023-02-01T08:17:31;32.20;;;6.10;;
19163;SDS011;9714;51.208;4.242;2023-02-01T08:19:58;36.80;;;6.60;;
19163;SDS011;9714;51.208;4.242;2023-02-01T08:22:25;35.23;;;6.77;;
19163;SDS011;9714;51.208;4.242;2023-02-01T08:58:29;40.77;;;7.77;;
19163;SDS011;9714;51.208;4.242;2023-02-01T09:00:57;28.63;;;6.93;;
19163;SDS011;9714;51.208;4.242;2023-02-01T09:03:28;33.00;;;7.33;;
19163;SDS011;9714;51.208;4.242;2023-02-01T09:05:59;25.40;;;6.47;;
19163;SDS011;9714;51.208;4.242;2023-02-01T09:08:27;31.63;;;6.90;;
19163;SDS011;9714;51.208;4.242;2023-02-01T09:10:57;29.57;;;7.00;;
19163;SDS011;9714;51.208;4.242;2023-02-01T12:42:36;17.43;;;2.97;;
19163;SDS011;9714;51.208;4.242;2023-02-01T12:45:12;20.30;;;3.53;;
19163;SDS011;9714;51.208;4.242;2023-02-01T12:47:49;19.67;;;3.17;;
19163;SDS011;9714;51.208;4.242;2023-02-01T12:50:31;14.83;;;3.50;;
19163;SDS011;9714;51.208;4.242;2023-02-01T12:53:06;21.97;;;3.80;;
19163;SDS011;9714;51.208;4.242;2023-02-01T12:55:49;10.60;;;1.87;;
19163;SDS011;9714;51.208;4.242;2023-02-01T12:58:19;17.23;;;2.93;;
19163;SDS011;9714;51.208;4.242;2023-02-01T13:00:51;14.90;;;2.80;;
19163;SDS011;9714;51.208;4.242;2023-02-01T13:03:26;21.03;;;3.50;;
19163;SDS011;9714;51.208;4.242;2023-02-01T13:06:02;13.53;;;2.83;;
19163;SDS011;9714;51.208;4.242;2023-02-01T13:08:36;22.87;;;3.53;;
19163;SDS011;9714;51.208;4.242;2023-02-01T13:11:11;18.07;;;2.93;;
19163;SDS011;9714;51.208;4.242;2023-02-01T13:13:45;25.57;;;3.90;;
19163;SDS011;9714;51.208;4.242;2023-02-01T13:16:20;27.10;;;3.27;;
19163;SDS011;9714;51.208;4.242;2023-02-01T13:18:53;17.87;;;2.80;;
19163;SDS011;9714;51.208;4.242;2023-02-01T13:21:27;25.90;;;3.13;;
19163;SDS011;9714;51.208;4.242;2023-02-01T13:23:59;11.47;;;2.10;;
19163;SDS011;9714;51.208;4.242;2023-02-01T13:26:27;31.67;;;4.90;;
19163;SDS011;9714;51.208;4.242;2023-02-01T13:28:56;20.83;;;3.60;;
19163;SDS011;9714;51.208;4.242;2023-02-01T13:31:33;16.13;;;2.37;;
19163;SDS011;9714;51.208;4.242;2023-02-01T13:34:29;26.37;;;3.53;;
19163;SDS011;9714;51.208;4.242;2023-02-01T13:37:20;21.50;;;3.60;;
19163;SDS011;9714;51.208;4.242;2023-02-01T13:39:59;19.40;;;3.47;;
19163;SDS011;9714;51.208;4.242;2023-02-01T13:42:45;25.57;;;4.07;;
19163;SDS011;9714;51.208;4.242;2023-02-01T13:45:17;17.73;;;2.80;;
19163;SDS011;9714;51.208;4.242;2023-02-01T13:47:48;16.03;;;2.67;;
19163;SDS011;9714;51.208;4.242;2023-02-01T13:50:20;10.77;;;1.30;;
19163;SDS011;9714;51.208;4.242;2023-02-01T13:52:51;29.07;;;3.33;;
19163;SDS011;9714;51.208;4.242;2023-02-01T13:55:25;18.60;;;4.10;;
19163;SDS011;9714;51.208;4.242;2023-02-01T14:00:45;15.03;;;2.93;;
19163;SDS011;9714;51.208;4.242;2023-02-01T14:03:16;17.13;;;2.77;;
19163;SDS011;9714;51.208;4.242;2023-02-01T14:06:02;18.13;;;2.90;;
19163;SDS011;9714;51.208;4.242;2023-02-01T14:08:45;15.73;;;3.20;;
19163;SDS011;9714;51.208;4.242;2023-02-01T14:11:36;18.23;;;2.80;;
19163;SDS011;9714;51.208;4.242;2023-02-01T14:23:21;17.43;;;3.53;;
19163;SDS011;9714;51.208;4.242;2023-02-01T14:26:02;20.40;;;3.40;;
19163;SDS011;9714;51.208;4.242;2023-02-01T14:28:32;16.23;;;2.40;;
19163;SDS011;9714;51.208;4.242;2023-02-01T14:31:17;22.47;;;3.80;;
19163;SDS011;9714;51.208;4.242;2023-02-01T14:34:02;24.93;;;4.20;;
19163;SDS011;9714;51.208;4.242;2023-02-01T14:36:42;27.30;;;4.70;;
19163;SDS011;9714;51.208;4.242;2023-02-01T14:39:19;20.97;;;4.00;;
19163;SDS011;9714;51.208;4.242;2023-02-01T14:41:51;15.93;;;2.50;;
19163;SDS011;9714;51.208;4.242;2023-02-01T14:44:23;18.83;;;3.53;;
19163;SDS011;9714;51.208;4.242;2023-02-01T14:47:02;20.83;;;2.87;;
19163;SDS011;9714;51.208;4.242;2023-02-01T14:49:52;20.17;;;3.40;;
19163;SDS011;9714;51.208;4.242;2023-02-01T14:52:23;19.43;;;2.60;;
19163;SDS011;9714;51.208;4.242;2023-02-01T14:54:59;23.17;;;3.70;;
19163;SDS011;9714;51.208;4.242;2023-02-01T14:57:37;19.07;;;3.27;;
19163;SDS011;9714;51.208;4.242;2023-02-01T15:00:14;20.97;;;3.67;;
19163;SDS011;9714;51.208;4.242;2023-02-01T15:02:48;20.92;;;3.70;;
19163;SDS011;9714;51.208;4.242;2023-02-01T15:05:25;28.20;;;3.50;;
19163;SDS011;9714;51.208;4.242;2023-02-01T15:08:05;24.37;;;3.07;;
19163;SDS011;9714;51.208;4.242;2023-02-01T15:10:40;28.57;;;4.13;;
19163;SDS011;9714;51.208;4.242;2023-02-01T15:13:28;24.73;;;3.93;;
19163;SDS011;9714;51.208;4.242;2023-02-01T15:15:59;19.40;;;3.10;;
19163;SDS011;9714;51.208;4.242;2023-02-01T15:18:29;22.53;;;4.10;;
19163;SDS011;9714;51.208;4.242;2023-02-01T15:21:01;17.73;;;3.80;;
19163;SDS011;9714;51.208;4.242;2023-02-01T15:23:29;23.43;;;4.03;;
19163;SDS011;9714;51.208;4.242;2023-02-01T15:26:02;28.93;;;3.90;;
19163;SDS011;9714;51.208;4.242;2023-02-01T15:28:30;25.10;;;3.60;;
19163;SDS011;9714;51.208;4.242;2023-02-01T15:31:00;20.33;;;3.80;;
19163;SDS011;9714;51.208;4.242;2023-02-01T15:33:30;21.77;;;3.50;;
19163;SDS011;9714;51.208;4.242;2023-02-01T15:36:08;21.23;;;4.10;;
19163;SDS011;9714;51.208;4.242;2023-02-01T15:38:44;20.77;;;3.90;;
19163;SDS011;9714;51.208;4.242;2023-02-01T15:41:13;26.83;;;4.57;;
19163;SDS011;9714;51.208;4.242;2023-02-01T15:43:42;16.57;;;4.10;;
19163;SDS011;9714;51.208;4.242;2023-02-01T15:46:21;23.93;;;4.57;;
19163;SDS011;9714;51.208;4.242;2023-02-01T15:48:51;20.17;;;3.90;;
19163;SDS011;9714;51.208;4.242;2023-02-01T15:51:22;22.07;;;2.70;;
19163;SDS011;9714;51.208;4.242;2023-02-01T15:53:52;23.97;;;3.73;;
19163;SDS011;9714;51.208;4.242;2023-02-01T15:56:23;25.27;;;4.73;;
19163;SDS011;9714;51.208;4.242;2023-02-01T15:58:53;22.03;;;3.77;;
19163;SDS011;9714;51.208;4.242;2023-02-01T16:01:25;20.00;;;3.83;;
19163;SDS011;9714;51.208;4.242;2023-02-01T16:04:04;23.33;;;3.97;;
19163;SDS011;9714;51.208;4.242;2023-02-01T16:06:46;24.33;;;6.43;;
19163;SDS011;9714;51.208;4.242;2023-02-01T16:09:21;21.13;;;4.17;;
19163;SDS011;9714;51.208;4.242;2023-02-01T16:11:54;26.03;;;3.97;;
19163;SDS011;9714;51.208;4.242;2023-02-01T16:14:23;26.33;;;4.77;;
19163;SDS011;9714;51.208;4.242;2023-02-01T16:19:28;27.63;;;3.93;;
19163;SDS011;9714;51.208;4.242;2023-02-01T16:21:58;19.50;;;2.80;;
19163;SDS011;9714;51.208;4.242;2023-02-01T16:24:25;27.33;;;4.13;;
19163;SDS011;9714;51.208;4.242;2023-02-01T16:26:54;26.27;;;3.83;;
19163;SDS011;9714;51.208;4.242;2023-02-01T16:31:52;21.03;;;3.60;;
19163;SDS011;9714;51.208;4.242;2023-02-01T16:34:19;21.53;;;3.57;;
19163;SDS011;9714;51.208;4.242;2023-02-01T16:36:47;24.20;;;4.40;;
19163;SDS011;9714;51.208;4.242;2023-02-01T16:39:20;26.23;;;4.57;;
19163;SDS011;9714;51.208;4.242;2023-02-01T16:41:49;23.80;;;4.80;;
19163;SDS011;9714;51.208;4.242;2023-02-01T16:44:18;20.37;;;3.53;;
19163;SDS011;9714;51.208;4.242;2023-02-01T16:46:47;21.43;;;4.23;;
19163;SDS011;9714;51.208;4.242;2023-02-01T16:49:17;26.93;;;5.30;;
19163;SDS011;9714;51.208;4.242;2023-02-01T16:54:21;31.97;;;5.47;;
19163;SDS011;9714;51.208;4.242;2023-02-01T16:56:48;25.63;;;5.17;;
19163;SDS011;9714;51.208;4.242;2023-02-01T16:59:24;31.37;;;6.63;;
19163;SDS011;9714;51.208;4.242;2023-02-01T17:01:51;33.13;;;6.63;;
19163;SDS011;9714;51.208;4.242;2023-02-01T17:04:19;31.53;;;6.53;;
19163;SDS011;9714;51.208;4.242;2023-02-01T17:06:48;40.33;;;7.70;;
19163;SDS011;9714;51.208;4.242;2023-02-01T17:09:15;30.63;;;7.07;;
19163;SDS011;9714;51.208;4.242;2023-02-01T17:11:45;35.50;;;7.77;;
19163;SDS011;9714;51.208;4.242;2023-02-01T17:14:19;25.30;;;6.83;;
19163;SDS011;9714;51.208;4.242;2023-02-01T17:16:53;33.83;;;7.47;;
19163;SDS011;9714;51.208;4.242;2023-02-01T17:19:20;28.27;;;5.87;;
19163;SDS011;9714;51.208;4.242;2023-02-01T17:21:50;39.10;;;7.27;;
19163;SDS011;9714;51.208;4.242;2023-02-01T17:24:21;33.57;;;6.10;;
19163;SDS011;9714;51.208;4.242;2023-02-01T17:26:51;25.77;;;6.83;;
19163;SDS011;9714;51.208;4.242;2023-02-01T17:29:18;35.90;;;6.57;;
19163;SDS011;9714;51.208;4.242;2023-02-01T17:31:52;27.10;;;5.00;;
19163;SDS011;9714;51.208;4.242;2023-02-01T17:34:24;24.70;;;5.43;;
19163;SDS011;9714;51.208;4.242;2023-02-01T17:36:51;20.87;;;4.40;;
19163;SDS011;9714;51.208;4.242;2023-02-01T17:39:21;24.33;;;4.23;;
19163;SDS011;9714;51.208;4.242;2023-02-01T17:42:08;29.87;;;5.47;;
19163;SDS011;9714;51.208;4.242;2023-02-01T17:47:07;32.73;;;5.50;;
19163;SDS011;9714;51.208;4.242;2023-02-01T17:49:36;29.87;;;6.13;;
19163;SDS011;9714;51.208;4.242;2023-02-01T17:52:03;23.07;;;4.33;;
19163;SDS011;9714;51.208;4.242;2023-02-01T17:54:31;22.90;;;4.80;;
19163;SDS011;9714;51.208;4.242;2023-02-01T17:57:00;25.97;;;4.53;;
19163;SDS011;9714;51.208;4.242;2023-02-01T17:59:29;31.57;;;5.67;;
19163;SDS011;9714;51.208;4.242;2023-02-01T18:01:57;29.83;;;5.03;;
19163;SDS011;9714;51.208;4.242;2023-02-01T18:04:27;29.77;;;4.83;;
19163;SDS011;9714;51.208;4.242;2023-02-01T18:06:55;19.17;;;4.23;;
19163;SDS011;9714;51.208;4.242;2023-02-01T18:09:24;31.47;;;5.57;;
19163;SDS011;9714;51.208;4.242;2023-02-01T18:11:55;27.17;;;5.13;;
19163;SDS011;9714;51.208;4.242;2023-02-01T18:14:24;30.63;;;5.97;;
19163;SDS011;9714;51.208;4.242;2023-02-01T18:16:54;26.57;;;4.23;;
19163;SDS011;9714;51.208;4.242;2023-02-01T18:19:21;26.87;;;5.00;;
19163;SDS011;9714;51.208;4.242;2023-02-01T18:21:49;32.30;;;6.30;;
19163;SDS011;9714;51.208;4.242;2023-02-01T18:24:19;30.67;;;6.10;;
19163;SDS011;9714;51.208;4.242;2023-02-01T18:26:48;28.63;;;6.47;;
19163;SDS011;9714;51.208;4.242;2023-02-01T18:29:17;31.60;;;6.83;;
19163;SDS011;9714;51.208;4.242;2023-02-01T18:31:46;32.97;;;7.53;;
19163;SDS011;9714;51.208;4.242;2023-02-01T18:34:19;24.97;;;5.90;;
19163;SDS011;9714;51.208;4.242;2023-02-01T18:36:46;27.30;;;5.50;;
19163;SDS011;9714;51.208;4.242;2023-02-01T18:39:17;33.70;;;5.67;;
19163;SDS011;9714;51.208;4.242;2023-02-01T18:41:45;33.73;;;5.77;;
19163;SDS011;9714;51.208;4.242;2023-02-01T18:44:16;26.40;;;5.90;;
19163;SDS011;9714;51.208;4.242;2023-02-01T18:46:43;20.83;;;4.27;;
19163;SDS011;9714;51.208;4.242;2023-02-01T18:49:12;25.53;;;4.97;;
19163;SDS011;9714;51.208;4.242;2023-02-01T18:51:43;26.30;;;4.73;;
19163;SDS011;9714;51.208;4.242;2023-02-01T18:54:11;25.97;;;6.07;;
19163;SDS011;9714;51.208;4.242;2023-02-01T18:56:38;35.27;;;6.83;;
19163;SDS011;9714;51.208;4.242;2023-02-01T18:59:08;23.30;;;5.47;;
19163;SDS011;9714;51.208;4.242;2023-02-01T19:01:35;25.07;;;5.67;;
19163;SDS011;9714;51.208;4.242;2023-02-01T19:04:04;23.07;;;4.33;;
19163;SDS011;9714;51.208;4.242;2023-02-01T19:06:32;28.63;;;5.90;;
19163;SDS011;9714;51.208;4.242;2023-02-01T19:09:00;33.50;;;6.67;;
19163;SDS011;9714;51.208;4.242;2023-02-01T19:11:28;31.87;;;6.10;;
19163;SDS011;9714;51.208;4.242;2023-02-01T19:13:56;37.13;;;6.43;;
19163;SDS011;9714;51.208;4.242;2023-02-01T19:16:23;28.47;;;6.33;;
19163;SDS011;9714;51.208;4.242;2023-02-01T19:18:51;27.27;;;5.53;;
19163;SDS011;9714;51.208;4.242;2023-02-01T19:21:18;31.67;;;6.17;;
19163;SDS011;9714;51.208;4.242;2023-02-01T19:23:45;21.10;;;5.07;;
19163;SDS011;9714;51.208;4.242;2023-02-01T19:26:15;27.53;;;6.03;;
19163;SDS011;9714;51.208;4.242;2023-02-01T19:28:43;33.53;;;6.10;;
19163;SDS011;9714;51.208;4.242;2023-02-01T19:31:12;27.10;;;5.37;;
19163;SDS011;9714;51.208;4.242;2023-02-01T19:33:40;30.43;;;5.17;;
19163;SDS011;9714;51.208;4.242;2023-02-01T19:36:07;27.10;;;4.60;;
19163;SDS011;9714;51.208;4.242;2023-02-01T19:38:35;26.13;;;4.83;;
19163;SDS011;9714;51.208;4.242;2023-02-01T19:41:02;21.27;;;5.40;;
19163;SDS011;9714;51.208;4.242;2023-02-01T19:43:31;21.93;;;4.90;;
19163;SDS011;9714;51.208;4.242;2023-02-01T19:46:05;25.33;;;5.83;;
19163;SDS011;9714;51.208;4.242;2023-02-01T19:48:33;34.17;;;6.00;;
19163;SDS011;9714;51.208;4.242;2023-02-01T19:51:00;23.43;;;5.83;;
19163;SDS011;9714;51.208;4.242;2023-02-01T19:53:28;29.57;;;5.97;;
19163;SDS011;9714;51.208;4.242;2023-02-01T19:55:56;29.60;;;6.00;;
19163;SDS011;9714;51.208;4.242;2023-02-01T19:58:25;34.40;;;6.00;;
19163;SDS011;9714;51.208;4.242;2023-02-01T20:00:53;29.07;;;5.57;;
19163;SDS011;9714;51.208;4.242;2023-02-01T20:03:21;24.57;;;5.50;;
19163;SDS011;9714;51.208;4.242;2023-02-01T20:05:49;30.30;;;5.77;;
19163;SDS011;9714;51.208;4.242;2023-02-01T20:08:18;28.00;;;5.80;;
19163;SDS011;9714;51.208;4.242;2023-02-01T20:10:46;38.23;;;6.73;;
19163;SDS011;9714;51.208;4.242;2023-02-01T20:13:15;35.17;;;6.30;;
19163;SDS011;9714;51.208;4.242;2023-02-01T20:15:42;30.03;;;7.07;;
19163;SDS011;9714;51.208;4.242;2023-02-01T20:18:11;31.13;;;6.30;;
19163;SDS011;9714;51.208;4.242;2023-02-01T20:20:40;37.43;;;7.70;;
19163;SDS011;9714;51.208;4.242;2023-02-01T20:23:07;28.20;;;7.40;;
19163;SDS011;9714;51.208;4.242;2023-02-01T20:25:34;40.27;;;6.53;;
19163;SDS011;9714;51.208;4.242;2023-02-01T20:28:02;24.63;;;6.40;;
19163;SDS011;9714;51.208;4.242;2023-02-01T20:30:30;31.17;;;7.40;;
19163;SDS011;9714;51.208;4.242;2023-02-01T20:32:57;36.63;;;7.13;;
19163;SDS011;9714;51.208;4.242;2023-02-01T20:35:26;35.17;;;6.67;;
19163;SDS011;9714;51.208;4.242;2023-02-01T20:37:54;35.67;;;7.60;;
19163;SDS011;9714;51.208;4.242;2023-02-01T20:40:23;28.80;;;6.83;;
19163;SDS011;9714;51.208;4.242;2023-02-01T20:42:50;28.87;;;7.10;;
19163;SDS011;9714;51.208;4.242;2023-02-01T20:45:17;29.50;;;7.37;;
19163;SDS011;9714;51.208;4.242;2023-02-01T20:47:47;28.30;;;7.23;;
19163;SDS011;9714;51.208;4.242;2023-02-01T20:50:14;34.80;;;6.40;;
19163;SDS011;9714;51.208;4.242;2023-02-01T20:52:43;26.57;;;5.93;;
19163;SDS011;9714;51.208;4.242;2023-02-01T20:55:10;27.37;;;5.33;;
19163;SDS011;9714;51.208;4.242;2023-02-01T20:57:37;29.30;;;6.37;;
19163;SDS011;9714;51.208;4.242;2023-02-01T21:00:05;31.37;;;5.27;;
19163;SDS011;9714;51.208;4.242;2023-02-01T21:02:34;24.57;;;5.03;;
19163;SDS011;9714;51.208;4.242;2023-02-01T21:05:01;23.97;;;4.93;;
19163;SDS011;9714;51.208;4.242;2023-02-01T21:07:35;33.50;;;4.70;;
19163;SDS011;9714;51.208;4.242;2023-02-01T21:10:07;34.10;;;5.20;;
19163;SDS011;9714;51.208;4.242;2023-02-01T21:12:35;22.13;;;4.53;;
19163;SDS011;9714;51.208;4.242;2023-02-01T21:15:03;22.87;;;4.70;;
19163;SDS011;9714;51.208;4.242;2023-02-01T21:17:32;20.23;;;3.50;;
19163;SDS011;9714;51.208;4.242;2023-02-01T21:20:03;21.40;;;4.33;;
19163;SDS011;9714;51.208;4.242;2023-02-01T21:22:32;26.63;;;4.10;;
19163;SDS011;9714;51.208;4.242;2023-02-01T21:24:59;21.37;;;4.47;;
19163;SDS011;9714;51.208;4.242;2023-02-01T21:27:28;26.53;;;4.50;;
19163;SDS011;9714;51.208;4.242;2023-02-01T21:29:55;27.07;;;4.83;;
19163;SDS011;9714;51.208;4.242;2023-02-01T21:32:22;26.17;;;4.37;;
19163;SDS011;9714;51.208;4.242;2023-02-01T21:34:49;24.57;;;3.73;;
19163;SDS011;9714;51.208;4.242;2023-02-01T21:37:20;21.53;;;3.73;;
19163;SDS011;9714;51.208;4.242;2023-02-01T21:39:51;21.40;;;3.43;;
19163;SDS011;9714;51.208;4.242;2023-02-01T21:42:20;21.07;;;3.97;;
19163;SDS011;9714;51.208;4.242;2023-02-01T21:44:56;21.50;;;3.63;;
19163;SDS011;9714;51.208;4.242;2023-02-01T21:47:26;22.20;;;4.03;;
19163;SDS011;9714;51.208;4.242;2023-02-01T21:49:53;21.77;;;4.63;;
19163;SDS011;9714;51.208;4.242;2023-02-01T21:52:20;23.33;;;4.67;;
19163;SDS011;9714;51.208;4.242;2023-02-01T21:54:48;25.37;;;4.30;;
19163;SDS011;9714;51.208;4.242;2023-02-01T21:57:23;20.63;;;4.00;;
19163;SDS011;9714;51.208;4.242;2023-02-01T21:59:50;20.03;;;3.30;;
19163;SDS011;9714;51.208;4.242;2023-02-01T22:02:19;22.33;;;4.20;;
19163;SDS011;9714;51.208;4.242;2023-02-01T22:04:46;25.90;;;4.50;;
19163;SDS011;9714;51.208;4.242;2023-02-01T22:07:14;23.93;;;3.53;;
19163;SDS011;9714;51.208;4.242;2023-02-01T22:09:41;19.53;;;3.27;;
19163;SDS011;9714;51.208;4.242;2023-02-01T22:12:08;23.37;;;4.57;;
19163;SDS011;9714;51.208;4.242;2023-02-01T22:14:36;21.00;;;3.70;;
19163;SDS011;9714;51.208;4.242;2023-02-01T22:17:04;15.27;;;3.20;;
19163;SDS011;9714;51.208;4.242;2023-02-01T22:19:33;24.20;;;3.90;;
19163;SDS011;9714;51.208;4.242;2023-02-01T22:22:00;21.33;;;3.73;;
19163;SDS011;9714;51.208;4.242;2023-02-01T22:24:27;20.13;;;3.43;;
19163;SDS011;9714;51.208;4.242;2023-02-01T22:26:54;27.50;;;4.67;;
19163;SDS011;9714;51.208;4.242;2023-02-01T22:29:22;23.17;;;3.93;;
19163;SDS011;9714;51.208;4.242;2023-02-01T22:31:50;19.80;;;3.40;;
19163;SDS011;9714;51.208;4.242;2023-02-01T22:34:17;22.63;;;2.97;;
19163;SDS011;9714;51.208;4.242;2023-02-01T22:36:47;19.73;;;3.40;;
19163;SDS011;9714;51.208;4.242;2023-02-01T22:39:15;22.30;;;3.50;;
19163;SDS011;9714;51.208;4.242;2023-02-01T22:41:42;17.63;;;2.87;;
19163;SDS011;9714;51.208;4.242;2023-02-01T22:44:09;30.50;;;4.50;;
19163;SDS011;9714;51.208;4.242;2023-02-01T22:46:36;26.43;;;4.33;;
19163;SDS011;9714;51.208;4.242;2023-02-01T22:49:04;24.77;;;3.43;;
19163;SDS011;9714;51.208;4.242;2023-02-01T22:51:31;19.10;;;4.37;;
19163;SDS011;9714;51.208;4.242;2023-02-01T22:54:00;22.73;;;5.00;;
19163;SDS011;9714;51.208;4.242;2023-02-01T22:56:28;18.17;;;3.13;;
19163;SDS011;9714;51.208;4.242;2023-02-01T22:58:57;22.70;;;3.77;;
19163;SDS011;9714;51.208;4.242;2023-02-01T23:01:26;21.97;;;3.90;;
19163;SDS011;9714;51.208;4.242;2023-02-01T23:03:57;18.93;;;3.67;;
19163;SDS011;9714;51.208;4.242;2023-02-01T23:06:25;19.97;;;3.23;;
19163;SDS011;9714;51.208;4.242;2023-02-01T23:08:53;17.33;;;3.50;;
19163;SDS011;9714;51.208;4.242;2023-02-01T23:11:23;17.80;;;4.03;;
19163;SDS011;9714;51.208;4.242;2023-02-01T23:13:51;21.83;;;3.63;;
19163;SDS011;9714;51.208;4.242;2023-02-01T23:16:18;23.50;;;4.13;;
19163;SDS011;9714;51.208;4.242;2023-02-01T23:18:46;17.70;;;3.83;;
19163;SDS011;9714;51.208;4.242;2023-02-01T23:21:13;22.43;;;3.93;;
19163;SDS011;9714;51.208;4.242;2023-02-01T23:23:44;25.60;;;3.87;;
19163;SDS011;9714;51.208;4.242;2023-02-01T23:26:11;22.43;;;3.70;;
19163;SDS011;9714;51.208;4.242;2023-02-01T23:28:40;18.90;;;3.40;;
19163;SDS011;9714;51.208;4.242;2023-02-01T23:31:07;20.93;;;4.30;;
19163;SDS011;9714;51.208;4.242;2023-02-01T23:33:37;22.40;;;4.27;;
19163;SDS011;9714;51.208;4.242;2023-02-01T23:36:05;26.73;;;4.03;;
19163;SDS011;9714;51.208;4.242;2023-02-01T23:38:35;23.27;;;4.60;;
19163;SDS011;9714;51.208;4.242;2023-02-01T23:41:03;24.73;;;3.77;;
19163;SDS011;9714;51.208;4.242;2023-02-01T23:43:31;26.73;;;3.83;;
19163;SDS011;9714;51.208;4.242;2023-02-01T23:46:17;18.50;;;4.13;;
19163;SDS011;9714;51.208;4.242;2023-02-01T23:48:45;23.10;;;4.00;;
19163;SDS011;9714;51.208;4.242;2023-02-01T23:51:15;23.37;;;3.83;;
19163;SDS011;9714;51.208;4.242;2023-02-01T23:53:42;23.93;;;3.63;;
19163;SDS011;9714;51.208;4.242;2023-02-01T23:56:14;19.73;;;3.47;;
19163;SDS011;9714;51.208;4.242;2023-02-01T23:58:43;23.40;;;3.53;;
